Time;durP1;ratioP1;P1;durP2;ratioP2;P2;SDS_P1;SDS_P2;PMS_P1;PMS_P2;Temp;Humidity;BMP_temperature;BMP_pressure;BME280_temperature;BME280_humidity;BME280_pressure;Samples;Min_cycle;Max_cycle;Signal;HPM_P1;HPM_P2
2021/12/24 00:00:54;;;;;;;65.63;32.97;;;7.50;99.90;;;;;;4941833;28;20109;-90
2021/12/24 00:03:21;;;;;;;64.43;33.67;;;7.50;99.90;;;;;;4975202;28;20106;-90
2021/12/24 00:05:47;;;;;;;66.80;33.93;;;7.50;99.90;;;;;;4957699;28;20023;-89
2021/12/24 00:08:13;;;;;;;62.77;31.40;;;7.50;99.90;;;;;;4957605;28;20082;-89
2021/12/24 00:10:40;;;;;;;57.43;30.53;;;7.60;99.90;;;;;;4941715;28;20474;-90
2021/12/24 00:13:11;;;;;;;64.67;31.13;;;7.60;99.90;;;;;;4957679;28;20110;-90
2021/12/24 00:18:48;;;;;;;51.60;27.10;;;7.50;99.90;;;;;;4957539;28;20030;-90
2021/12/24 00:37:19;;;;;;;48.47;25.93;;;7.60;99.90;;;;;;4956918;28;20129;-89
2021/12/24 00:40:00;;;;;;;51.10;27.17;;;7.60;99.90;;;;;;4956835;28;20031;-90
2021/12/24 00:42:25;;;;;;;53.80;27.63;;;7.70;99.90;;;;;;4941179;28;20300;-90
2021/12/24 00:44:51;;;;;;;53.33;28.70;;;7.60;99.90;;;;;;4941022;28;20035;-90
2021/12/24 00:47:17;;;;;;;49.80;26.80;;;7.70;99.90;;;;;;4941065;28;20027;-90
2021/12/24 00:49:43;;;;;;;48.03;26.20;;;7.70;99.90;;;;;;4956446;28;20129;-89
2021/12/24 00:52:33;;;;;;;47.47;26.13;;;7.70;99.90;;;;;;4940747;28;20043;-90
2021/12/24 00:55:09;;;;;;;48.60;26.80;;;7.70;99.90;;;;;;4940968;28;20039;-90
2021/12/24 00:57:44;;;;;;;46.07;25.90;;;7.70;99.90;;;;;;4956494;28;20113;-89
2021/12/24 01:00:18;;;;;;;49.90;26.63;;;7.70;99.90;;;;;;4940510;28;20549;-90
2021/12/24 01:02:45;;;;;;;50.57;26.50;;;7.80;99.90;;;;;;4940785;28;20035;-90
2021/12/24 01:05:12;;;;;;;46.33;25.03;;;7.70;99.90;;;;;;4956909;28;20045;-90
2021/12/24 01:07:39;;;;;;;44.53;26.07;;;7.80;99.90;;;;;;4940352;28;20027;-90
2021/12/24 01:10:07;;;;;;;45.13;25.97;;;7.80;99.90;;;;;;4956595;28;20031;-90
2021/12/24 01:12:33;;;;;;;46.20;26.10;;;7.80;99.90;;;;;;4940659;28;20031;-90
2021/12/24 01:14:59;;;;;;;47.57;26.77;;;7.80;99.90;;;;;;4956390;28;20065;-90
2021/12/24 01:19:59;;;;;;;47.67;27.33;;;7.80;99.90;;;;;;4956345;28;20090;-90
2021/12/24 01:27:55;;;;;;;49.33;26.57;;;7.70;99.90;;;;;;4955844;28;20022;-90
2021/12/24 01:38:35;;;;;;;45.20;26.30;;;7.80;99.90;;;;;;4955573;28;20111;-90
2021/12/24 01:43:28;;;;;;;48.43;26.53;;;7.90;99.90;;;;;;4956068;28;20023;-90
2021/12/24 01:45:57;;;;;;;44.13;26.47;;;7.90;99.90;;;;;;4940301;28;20038;-90
2021/12/24 01:48:24;;;;;;;46.70;27.90;;;7.80;99.90;;;;;;4940162;28;20764;-90
2021/12/24 01:50:53;;;;;;;48.27;27.07;;;7.80;99.90;;;;;;4940187;28;20023;-90
2021/12/24 01:53:24;;;;;;;45.80;26.60;;;7.90;99.90;;;;;;4940946;28;20053;-90
2021/12/24 01:55:52;;;;;;;45.60;26.15;;;7.80;99.90;;;;;;4940186;28;20166;-90
2021/12/24 01:58:25;;;;;;;45.37;26.33;;;7.90;99.90;;;;;;4940259;28;20031;-89
2021/12/24 02:00:53;;;;;;;48.93;27.53;;;7.90;99.90;;;;;;4940137;28;20411;-90
2021/12/24 02:03:19;;;;;;;46.53;26.70;;;8.00;99.90;;;;;;4940125;28;20102;-90
2021/12/24 02:05:46;;;;;;;49.13;27.90;;;7.90;99.90;;;;;;4940130;28;20031;-90
2021/12/24 02:08:13;;;;;;;47.50;26.93;;;7.80;99.90;;;;;;4940055;28;20219;-90
2021/12/24 02:10:40;;;;;;;51.00;27.07;;;7.80;99.90;;;;;;4940134;28;20030;-90
2021/12/24 02:13:06;;;;;;;53.00;28.00;;;8.00;99.90;;;;;;4940058;28;20405;-90
2021/12/24 02:15:49;;;;;;;52.72;29.25;;;7.90;99.90;;;;;;4940522;28;20031;-89
2021/12/24 02:29:15;;;;;;;54.70;29.37;;;8.10;99.90;;;;;;4960022;28;20026;-90
2021/12/24 02:31:43;;;;;;;53.23;28.37;;;8.10;99.90;;;;;;4943900;28;20023;-90
2021/12/24 02:34:09;;;;;;;52.80;29.10;;;8.10;99.90;;;;;;4943880;28;20501;-90
2021/12/24 02:36:35;;;;;;;58.40;30.70;;;8.10;99.90;;;;;;4943447;28;20041;-90
2021/12/24 02:39:02;;;;;;;51.80;29.70;;;8.10;99.90;;;;;;4943838;28;20044;-90
2021/12/24 02:41:28;;;;;;;56.60;30.37;;;8.10;99.90;;;;;;4943939;28;20114;-91
2021/12/24 02:43:54;;;;;;;55.07;29.67;;;8.10;99.90;;;;;;4945610;28;20051;-89
2021/12/24 02:46:31;;;;;;;51.97;28.17;;;8.10;99.90;;;;;;4947448;28;20023;-90
2021/12/24 02:49:07;;;;;;;47.70;26.53;;;8.10;99.90;;;;;;4946389;28;20421;-90
2021/12/24 02:54:19;;;;;;;50.37;27.37;;;8.10;99.90;;;;;;4959483;28;20482;-91
2021/12/24 02:56:55;;;;;;;52.93;28.10;;;8.10;99.90;;;;;;4943196;28;20030;-90
2021/12/24 02:59:26;;;;;;;47.97;25.97;;;8.10;99.90;;;;;;4959458;28;20093;-90
2021/12/24 03:01:56;;;;;;;50.90;27.37;;;8.10;99.90;;;;;;4943299;28;20066;-90
2021/12/24 03:04:22;;;;;;;44.28;25.20;;;8.10;99.90;;;;;;4943022;28;20031;-90
2021/12/24 03:06:51;;;;;;;49.00;25.57;;;8.10;99.90;;;;;;4942999;28;20035;-89
2021/12/24 03:09:19;;;;;;;47.58;26.15;;;8.10;99.90;;;;;;4942933;28;20086;-90
2021/12/24 03:11:48;;;;;;;46.30;25.40;;;8.10;99.90;;;;;;4943051;28;20039;-89
2021/12/24 03:14:19;;;;;;;48.47;26.83;;;8.20;99.90;;;;;;4943159;28;20066;-90
2021/12/24 03:16:53;;;;;;;45.67;26.73;;;8.10;99.90;;;;;;4943069;28;20030;-90
2021/12/24 03:19:23;;;;;;;49.73;26.30;;;8.20;99.90;;;;;;4942384;28;20046;-91
2021/12/24 03:21:56;;;;;;;50.37;27.17;;;8.20;99.90;;;;;;4975892;28;20438;-89
2021/12/24 03:26:51;;;;;;;49.67;27.27;;;8.10;99.90;;;;;;4958422;28;20537;-89
2021/12/24 03:29:18;;;;;;;45.55;26.88;;;8.20;99.90;;;;;;4942029;28;20035;-90
2021/12/24 03:31:47;;;;;;;;;;;8.20;99.90;;;;;;4941917;28;20031;-90
2021/12/24 03:34:19;;;;;;;52.80;25.47;;;8.20;99.90;;;;;;4942305;28;20008;-90
2021/12/24 03:36:45;;;;;;;46.63;26.40;;;8.20;99.90;;;;;;4942867;28;20090;-90
2021/12/24 03:39:16;;;;;;;49.20;26.27;;;8.20;99.90;;;;;;4942638;28;20037;-90
2021/12/24 03:41:42;;;;;;;50.33;27.07;;;8.10;99.90;;;;;;4942307;28;20189;-90
2021/12/24 03:44:11;;;;;;;49.83;26.90;;;8.20;99.90;;;;;;4942171;28;20027;-90
2021/12/24 03:46:53;;;;;;;53.13;28.07;;;8.20;99.90;;;;;;4958143;28;20027;-90
2021/12/24 03:49:31;;;;;;;55.10;28.80;;;8.20;99.90;;;;;;4958414;28;20034;-90
2021/12/24 03:52:14;;;;;;;55.10;28.95;;;8.10;99.90;;;;;;4942238;28;20058;-89
2021/12/24 03:54:56;;;;;;;51.50;27.10;;;8.10;99.90;;;;;;4942282;28;20414;-91
2021/12/24 03:57:30;;;;;;;48.77;26.53;;;8.10;99.90;;;;;;4942347;28;20166;-90
2021/12/24 04:00:18;;;;;;;47.77;26.90;;;8.20;99.90;;;;;;4960623;28;20038;-91
2021/12/24 04:02:53;;;;;;;50.03;26.30;;;8.30;99.90;;;;;;4957990;28;20037;-90
2021/12/24 04:05:50;;;;;;;48.23;26.20;;;8.30;99.90;;;;;;4974937;28;20039;-90
2021/12/24 04:08:52;;;;;;;44.23;24.17;;;8.30;99.90;;;;;;4896465;29;20115;-90
2021/12/24 04:11:44;;;;;;;44.13;25.40;;;8.30;99.90;;;;;;4943471;28;20034;-90
2021/12/24 04:14:10;;;;;;;53.97;26.87;;;8.30;99.90;;;;;;4941804;28;20031;-90
2021/12/24 04:16:37;;;;;;;50.37;27.40;;;8.30;99.90;;;;;;4941753;28;20138;-90
2021/12/24 04:24:51;;;;;;;54.50;27.90;;;8.30;99.90;;;;;;4957457;28;20030;-90
2021/12/24 04:27:25;;;;;;;51.37;27.70;;;8.30;99.90;;;;;;4941446;28;20034;-90
2021/12/24 04:30:00;;;;;;;56.67;28.37;;;8.30;99.90;;;;;;4941500;28;20049;-89
2021/12/24 04:32:50;;;;;;;49.20;26.87;;;8.30;99.90;;;;;;4941562;28;20324;-90
2021/12/24 04:51:39;;;;;;;55.53;28.17;;;8.30;99.90;;;;;;4957017;28;20469;-90
2021/12/24 05:02:43;;;;;;;54.90;27.17;;;8.30;99.90;;;;;;4957044;28;20118;-90
2021/12/24 05:05:23;;;;;;;57.23;28.07;;;8.30;99.90;;;;;;4940814;28;20118;-89
2021/12/24 05:10:22;;;;;;;52.53;27.80;;;8.40;99.90;;;;;;4956833;28;20030;-89
2021/12/24 05:12:49;;;;;;;68.13;29.67;;;8.30;99.90;;;;;;4940670;28;20062;-89
2021/12/24 05:15:17;;;;;;;58.17;30.07;;;8.40;99.90;;;;;;4940508;28;20034;-89
2021/12/24 05:23:55;;;;;;;58.33;28.03;;;8.30;99.90;;;;;;4956442;28;20077;-90
2021/12/24 05:26:21;;;;;;;56.97;27.50;;;8.30;99.90;;;;;;4956599;28;20042;-90
2021/12/24 05:28:48;;;;;;;50.40;25.80;;;8.30;99.90;;;;;;4956647;28;20379;-89
2021/12/24 05:31:14;;;;;;;54.40;27.67;;;8.30;99.90;;;;;;4940447;28;20038;-90
2021/12/24 05:33:40;;;;;;;57.90;27.57;;;8.30;99.90;;;;;;4956163;28;20030;-90
2021/12/24 05:36:05;;;;;;;48.73;27.40;;;8.30;99.90;;;;;;4956187;28;20133;-91
2021/12/24 05:38:33;;;;;;;55.97;28.03;;;8.40;99.90;;;;;;4940442;28;20129;-90
2021/12/24 05:40:59;;;;;;;52.83;27.97;;;8.30;99.90;;;;;;4956421;28;20052;-90
2021/12/24 05:43:25;;;;;;;58.60;29.40;;;8.40;99.90;;;;;;4940485;28;20034;-90
2021/12/24 05:45:51;;;;;;;60.13;29.50;;;8.30;99.90;;;;;;4940440;28;20030;-90
2021/12/24 05:48:26;;;;;;;61.20;28.70;;;8.30;99.90;;;;;;4941413;28;20486;-91
2021/12/24 05:51:00;;;;;;;56.07;29.03;;;8.30;99.90;;;;;;4941255;28;20031;-89
2021/12/24 05:53:45;;;;;;;59.20;29.27;;;8.30;99.90;;;;;;4958756;28;20045;-89
2021/12/24 05:56:15;;;;;;;58.17;28.63;;;8.40;99.90;;;;;;4955964;28;20486;-90
2021/12/24 05:58:43;;;;;;;58.40;27.87;;;8.40;99.90;;;;;;4940392;28;20050;-90
2021/12/24 06:01:09;;;;;;;60.77;29.43;;;8.40;99.90;;;;;;4940170;28;20053;-90
2021/12/24 06:03:44;;;;;;;60.20;29.67;;;8.40;99.90;;;;;;4955984;28;20097;-90
2021/12/24 06:06:10;;;;;;;54.63;28.67;;;8.40;99.90;;;;;;4973314;28;20478;-90
2021/12/24 06:08:36;;;;;;;58.93;27.90;;;8.40;99.90;;;;;;4940137;28;20062;-90
2021/12/24 06:11:02;;;;;;;58.43;28.43;;;8.50;99.90;;;;;;4940111;28;20034;-89
2021/12/24 06:13:29;;;;;;;54.47;26.80;;;8.40;99.90;;;;;;4973698;28;20027;-91
2021/12/24 06:15:55;;;;;;;49.90;26.40;;;8.40;99.90;;;;;;4939896;28;20034;-90
2021/12/24 06:18:24;;;;;;;58.23;27.73;;;8.40;99.90;;;;;;4973318;28;20390;-90
2021/12/24 06:20:52;;;;;;;58.73;29.33;;;8.50;99.90;;;;;;4939941;28;20405;-90
2021/12/24 06:23:20;;;;;;;51.43;26.17;;;8.50;99.90;;;;;;4939823;28;20023;-90
2021/12/24 06:25:47;;;;;;;58.50;25.93;;;8.50;99.90;;;;;;4940087;28;20125;-91
2021/12/24 06:28:13;;;;;;;50.07;26.07;;;8.50;99.90;;;;;;4940941;28;20042;-90
2021/12/24 06:30:39;;;;;;;53.87;26.90;;;8.50;99.90;;;;;;4942442;28;20035;-90
2021/12/24 06:33:05;;;;;;;53.50;27.43;;;8.40;99.90;;;;;;4959581;28;20085;-90
2021/12/24 06:35:31;;;;;;;54.93;26.50;;;8.40;99.90;;;;;;4941276;28;20445;-90
2021/12/24 06:37:57;;;;;;;62.97;28.10;;;8.40;99.90;;;;;;4956077;28;20117;-90
2021/12/24 06:40:24;;;;;;;52.83;27.07;;;8.40;99.90;;;;;;4955600;28;20034;-91
2021/12/24 06:42:50;;;;;;;56.70;27.37;;;8.50;99.90;;;;;;4956297;28;20034;-90
2021/12/24 06:45:21;;;;;;;55.77;28.00;;;8.40;99.90;;;;;;4955820;28;20027;-90
2021/12/24 06:47:47;;;;;;;53.73;26.47;;;8.50;99.90;;;;;;4939868;28;20557;-91
2021/12/24 06:50:13;;;;;;;53.20;27.37;;;8.50;99.90;;;;;;4939674;28;20045;-90
2021/12/24 06:52:39;;;;;;;51.07;27.30;;;8.40;99.90;;;;;;4939650;28;20053;-90
2021/12/24 06:55:06;;;;;;;59.43;28.80;;;8.50;99.90;;;;;;4939864;28;20486;-90
2021/12/24 06:57:34;;;;;;;52.47;27.17;;;8.50;99.90;;;;;;4955632;28;20360;-90
2021/12/24 07:00:00;;;;;;;53.50;27.63;;;8.60;99.90;;;;;;4939643;28;20039;-90
2021/12/24 07:02:26;;;;;;;62.47;29.90;;;8.60;99.90;;;;;;4939599;28;20035;-89
2021/12/24 07:04:52;;;;;;;67.63;30.07;;;8.50;99.90;;;;;;4972833;28;20045;-90
2021/12/24 07:07:18;;;;;;;58.33;28.67;;;8.50;99.90;;;;;;4958773;28;20129;-90
2021/12/24 07:09:46;;;;;;;49.70;27.13;;;8.60;99.90;;;;;;4943168;28;20453;-90
2021/12/24 07:12:13;;;;;;;54.53;26.80;;;8.60;99.90;;;;;;4958991;28;20038;-90
2021/12/24 07:14:41;;;;;;;52.47;27.20;;;8.60;99.90;;;;;;4958643;28;20083;-90
2021/12/24 07:17:07;;;;;;;49.37;25.83;;;8.60;99.90;;;;;;4942819;28;20034;-91
2021/12/24 07:19:33;;;;;;;56.00;26.53;;;8.60;99.90;;;;;;4944444;28;20039;-90
2021/12/24 07:21:59;;;;;;;54.57;25.83;;;8.50;99.90;;;;;;4942595;28;20030;-90
2021/12/24 07:24:25;;;;;;;50.53;24.77;;;8.50;99.90;;;;;;4958720;28;20031;-89
2021/12/24 07:26:51;;;;;;;51.13;25.87;;;8.60;99.90;;;;;;4958487;28;20121;-89
2021/12/24 07:29:17;;;;;;;51.20;25.83;;;8.60;99.90;;;;;;4958594;28;20035;-90
2021/12/24 07:31:42;;;;;;;51.53;24.33;;;8.70;99.90;;;;;;4958507;28;20030;-90
2021/12/24 07:34:11;;;;;;;51.73;24.37;;;8.60;99.90;;;;;;4942412;28;20509;-90
2021/12/24 07:36:36;;;;;;;47.67;23.40;;;8.60;99.90;;;;;;4942172;28;20397;-90
2021/12/24 07:39:04;;;;;;;51.03;24.27;;;8.60;99.90;;;;;;4975640;28;20039;-90
2021/12/24 07:41:30;;;;;;;48.10;24.73;;;8.60;99.90;;;;;;4958279;28;20097;-91
2021/12/24 07:43:56;;;;;;;49.73;24.90;;;8.60;99.90;;;;;;4976078;28;20030;-90
2021/12/24 07:46:24;;;;;;;46.80;23.60;;;8.60;99.90;;;;;;4942236;28;20114;-90
2021/12/24 07:48:50;;;;;;;51.07;23.67;;;8.70;99.90;;;;;;4958372;28;20114;-89
2021/12/24 07:54:03;;;;;;;53.03;24.50;;;8.60;99.90;;;;;;4958133;28;20125;-90
2021/12/24 07:56:32;;;;;;;53.57;24.93;;;8.60;99.90;;;;;;4942200;28;20030;-90
2021/12/24 07:58:58;;;;;;;46.63;24.58;;;8.60;99.90;;;;;;4941877;28;20057;-90
2021/12/24 08:01:26;;;;;;;54.80;26.20;;;8.70;99.90;;;;;;4941917;28;20485;-89
2021/12/24 08:03:53;;;;;;;57.30;26.07;;;8.80;99.90;;;;;;4942265;28;20062;-90
2021/12/24 08:06:23;;;;;;;54.63;26.27;;;8.70;99.90;;;;;;4975627;28;20027;-90
2021/12/24 08:08:49;;;;;;;55.45;24.88;;;8.80;99.90;;;;;;4975608;28;20110;-90
2021/12/24 08:11:15;;;;;;;57.30;26.57;;;8.70;99.90;;;;;;4958367;28;20057;-90
2021/12/24 08:13:41;;;;;;;53.90;26.63;;;8.60;99.90;;;;;;4958416;28;20031;-89
2021/12/24 08:16:08;;;;;;;62.47;26.90;;;8.70;99.90;;;;;;4942026;28;20035;-90
2021/12/24 08:18:34;;;;;;;54.90;26.90;;;8.70;99.90;;;;;;4957050;28;20025;-90
2021/12/24 08:20:59;;;;;;;50.90;26.30;;;8.80;99.90;;;;;;4957644;28;20129;-90
2021/12/24 08:23:25;;;;;;;50.53;26.53;;;8.70;99.90;;;;;;4941865;28;20062;-90
2021/12/24 08:25:58;;;;;;;50.63;24.03;;;8.70;99.90;;;;;;4957430;28;20023;-90
2021/12/24 08:28:24;;;;;;;51.47;24.37;;;8.70;99.90;;;;;;4957545;28;20101;-90
2021/12/24 08:30:51;;;;;;;53.20;24.33;;;8.70;99.90;;;;;;4957339;28;20126;-91
2021/12/24 08:33:16;;;;;;;58.30;24.70;;;8.60;99.90;;;;;;4942111;28;20118;-90
2021/12/24 08:35:43;;;;;;;58.43;25.73;;;8.70;99.90;;;;;;4957744;28;20599;-90
2021/12/24 08:38:08;;;;;;;53.37;24.33;;;8.60;99.90;;;;;;4941457;28;20064;-90
2021/12/24 08:40:34;;;;;;;52.27;23.97;;;8.60;99.90;;;;;;4941709;28;20485;-90
2021/12/24 08:43:00;;;;;;;53.50;23.90;;;8.60;99.90;;;;;;4941433;28;20031;-90
2021/12/24 08:45:26;;;;;;;52.83;25.60;;;8.70;99.90;;;;;;4941412;28;20023;-90
2021/12/24 08:47:54;;;;;;;55.83;25.57;;;8.80;99.90;;;;;;4941493;28;20050;-90
2021/12/24 08:50:19;;;;;;;55.43;23.37;;;8.80;99.90;;;;;;4956938;28;20038;-90
2021/12/24 08:52:46;;;;;;;56.57;24.13;;;8.80;99.90;;;;;;4941138;28;20142;-91
2021/12/24 08:55:13;;;;;;;47.87;24.00;;;8.70;99.90;;;;;;4957100;28;20056;-90
2021/12/24 08:57:40;;;;;;;49.37;23.80;;;8.70;99.90;;;;;;4956944;28;20515;-91
2021/12/24 09:00:09;;;;;;;48.73;23.73;;;8.70;99.90;;;;;;4956946;28;20031;-90
2021/12/24 09:02:36;;;;;;;46.90;22.67;;;8.80;99.90;;;;;;4940889;28;20541;-90
2021/12/24 09:05:04;;;;;;;49.03;22.83;;;8.80;99.90;;;;;;4956871;28;20046;-90
2021/12/24 09:07:30;;;;;;;47.33;21.83;;;8.80;99.90;;;;;;4957626;28;20042;-89
2021/12/24 09:09:56;;;;;;;50.70;22.43;;;8.90;99.90;;;;;;4956886;28;20030;-91
2021/12/24 09:12:22;;;;;;;51.07;21.73;;;8.80;99.90;;;;;;4956625;28;20043;-91
2021/12/24 09:14:47;;;;;;;47.37;22.23;;;8.80;99.90;;;;;;4940701;28;20031;-91
2021/12/24 09:17:14;;;;;;;47.10;22.07;;;8.80;99.90;;;;;;4958008;28;20035;-90
2021/12/24 09:19:46;;;;;;;52.13;21.97;;;8.80;99.90;;;;;;4958612;28;20038;-90
2021/12/24 09:22:16;;;;;;;47.77;21.60;;;8.80;99.90;;;;;;4941818;28;20027;-90
2021/12/24 09:24:44;;;;;;;52.07;22.00;;;8.80;99.90;;;;;;4940913;28;20041;-89
2021/12/24 09:27:10;;;;;;;47.47;21.50;;;8.80;99.90;;;;;;4941288;28;20033;-89
2021/12/24 09:29:36;;;;;;;48.17;21.27;;;8.80;99.90;;;;;;4940033;28;20035;-91
2021/12/24 09:32:03;;;;;;;49.73;21.87;;;8.80;99.90;;;;;;4941109;28;20034;-91
2021/12/24 09:34:29;;;;;;;57.30;24.57;;;8.80;99.90;;;;;;4941219;28;20129;-90
2021/12/24 09:36:55;;;;;;;48.77;22.43;;;8.80;99.90;;;;;;4941399;28;20473;-90
2021/12/24 09:39:21;;;;;;;46.33;21.47;;;8.80;99.90;;;;;;4941511;28;20062;-90
2021/12/24 09:41:47;;;;;;;44.20;21.80;;;8.80;99.90;;;;;;4940798;28;20035;-90
2021/12/24 09:44:14;;;;;;;44.83;22.67;;;8.80;99.90;;;;;;4941037;28;20033;-90
2021/12/24 09:46:42;;;;;;;57.80;22.67;;;8.80;99.90;;;;;;4941047;28;20393;-90
2021/12/24 09:49:13;;;;;;;54.63;24.38;;;8.80;99.90;;;;;;4957486;28;20038;-90
2021/12/24 09:51:41;;;;;;;52.87;23.70;;;8.80;99.90;;;;;;4956874;28;20461;-90
2021/12/24 09:54:13;;;;;;;45.50;22.77;;;8.80;99.90;;;;;;4957070;28;20125;-91
2021/12/24 09:56:40;;;;;;;46.50;22.47;;;8.90;99.90;;;;;;4941469;28;20078;-91
2021/12/24 09:59:06;;;;;;;51.07;23.17;;;8.80;99.90;;;;;;4941386;28;20474;-90
2021/12/24 10:01:36;;;;;;;52.47;23.20;;;8.80;99.90;;;;;;4941268;28;20035;-90
2021/12/24 10:04:06;;;;;;;49.07;23.37;;;8.90;99.90;;;;;;4941010;28;20093;-91
2021/12/24 10:06:32;;;;;;;60.17;23.02;;;8.90;99.90;;;;;;4956469;28;20030;-91
2021/12/24 10:09:04;;;;;;;47.80;22.33;;;8.90;99.90;;;;;;4940549;28;20031;-91
2021/12/24 10:11:45;;;;;;;51.90;21.73;;;8.80;99.90;;;;;;4941801;28;20027;-90
2021/12/24 10:14:11;;;;;;;41.60;20.43;;;8.90;99.90;;;;;;4944559;28;20059;-91
2021/12/24 10:16:41;;;;;;;48.70;20.03;;;8.90;99.90;;;;;;4958324;28;20034;-90
2021/12/24 10:19:08;;;;;;;44.07;19.60;;;8.80;99.90;;;;;;4939723;28;20489;-90
2021/12/24 10:21:35;;;;;;;41.37;19.70;;;8.90;99.90;;;;;;4939945;28;20030;-91
2021/12/24 10:24:08;;;;;;;45.50;19.63;;;8.90;99.90;;;;;;4973280;28;20026;-90
2021/12/24 10:26:35;;;;;;;41.40;18.83;;;9.00;99.90;;;;;;4940297;28;20034;-90
2021/12/24 10:29:00;;;;;;;39.77;17.87;;;8.90;99.90;;;;;;4943707;28;20030;-90
2021/12/24 10:31:34;;;;;;;37.53;17.27;;;9.00;99.90;;;;;;4952622;28;20070;-90
2021/12/24 10:34:06;;;;;;;40.60;17.20;;;9.00;99.90;;;;;;4960012;28;20478;-90
2021/12/24 10:36:32;;;;;;;42.37;18.17;;;9.00;99.90;;;;;;4963553;28;20394;-90
2021/12/24 10:38:58;;;;;;;36.40;16.57;;;9.00;99.90;;;;;;4939652;28;20027;-91
2021/12/24 10:41:25;;;;;;;42.83;17.60;;;9.00;99.90;;;;;;4958019;28;20034;-90
2021/12/24 10:43:52;;;;;;;35.60;17.57;;;9.00;99.90;;;;;;4943859;28;20026;-90
2021/12/24 10:46:25;;;;;;;44.70;18.03;;;9.10;99.90;;;;;;4943521;28;20536;-90
2021/12/24 10:49:16;;;;;;;40.70;17.47;;;9.00;99.90;;;;;;4943559;28;20058;-90
2021/12/24 10:51:57;;;;;;;34.80;16.13;;;9.00;99.90;;;;;;4944086;28;20027;-90
2021/12/24 10:54:23;;;;;;;41.50;16.97;;;9.10;99.90;;;;;;4943893;28;20043;-90
2021/12/24 10:56:49;;;;;;;38.03;16.70;;;9.10;99.90;;;;;;4943471;28;20489;-91
2021/12/24 10:59:15;;;;;;;39.50;17.60;;;9.00;99.90;;;;;;4943441;28;20097;-90
2021/12/24 11:01:41;;;;;;;39.47;16.40;;;9.10;99.90;;;;;;4943333;28;20078;-90
2021/12/24 11:04:07;;;;;;;35.37;16.27;;;9.10;99.90;;;;;;4943340;28;20031;-90
2021/12/24 11:06:33;;;;;;;35.73;14.47;;;9.10;99.90;;;;;;4944861;28;20121;-90
2021/12/24 11:08:59;;;;;;;36.30;14.50;;;9.10;99.90;;;;;;4943799;28;20058;-91
2021/12/24 11:11:35;;;;;;;37.37;15.73;;;9.00;99.90;;;;;;4943343;28;20038;-90
2021/12/24 11:14:01;;;;;;;36.60;16.00;;;9.10;99.90;;;;;;4943104;28;20446;-90
2021/12/24 11:16:27;;;;;;;33.53;14.50;;;9.10;99.90;;;;;;4942942;28;20057;-91
2021/12/24 11:19:00;;;;;;;33.77;14.47;;;9.10;99.90;;;;;;4943105;28;20500;-91
2021/12/24 11:21:28;;;;;;;32.90;13.93;;;9.10;99.90;;;;;;4943121;28;20034;-91
2021/12/24 11:23:54;;;;;;;34.23;14.60;;;9.00;99.90;;;;;;4943000;28;20588;-91
2021/12/24 11:26:25;;;;;;;30.87;14.50;;;9.00;99.90;;;;;;4942917;28;20078;-90
2021/12/24 11:28:50;;;;;;;38.20;15.07;;;8.90;99.90;;;;;;4942878;28;20078;-91
2021/12/24 11:31:21;;;;;;;35.67;15.40;;;8.90;99.90;;;;;;4942751;28;20027;-91
2021/12/24 11:33:51;;;;;;;39.83;14.73;;;8.80;99.90;;;;;;4958804;28;20031;-91
2021/12/24 11:36:20;;;;;;;34.45;15.38;;;8.80;99.90;;;;;;4942519;28;20037;-91
2021/12/24 11:38:53;;;;;;;34.78;15.95;;;8.80;99.90;;;;;;4942602;28;20121;-91
2021/12/24 11:41:25;;;;;;;36.43;15.33;;;8.80;99.90;;;;;;4942440;28;20434;-90
2021/12/24 11:43:52;;;;;;;36.00;15.17;;;8.90;99.90;;;;;;4942492;28;20478;-90
2021/12/24 11:46:19;;;;;;;36.73;17.57;;;8.90;99.90;;;;;;4942181;28;20035;-91
2021/12/24 11:48:48;;;;;;;38.67;17.00;;;8.80;99.90;;;;;;4943100;28;20094;-91
2021/12/24 11:51:23;;;;;;;36.65;16.17;;;8.90;99.90;;;;;;4942851;28;20035;-90
2021/12/24 11:53:53;;;;;;;34.17;16.03;;;8.90;99.90;;;;;;4942418;28;20042;-91
2021/12/24 11:56:20;;;;;;;39.37;17.03;;;8.80;99.90;;;;;;4958730;28;20041;-92
2021/12/24 11:58:50;;;;;;;43.60;20.27;;;8.80;99.90;;;;;;4942502;28;20062;-91
2021/12/24 12:01:18;;;;;;;43.37;19.23;;;8.80;99.90;;;;;;4942137;28;20409;-92
2021/12/24 12:03:52;;;;;;;45.43;17.87;;;8.80;99.90;;;;;;4942808;28;20027;-91
2021/12/24 12:06:20;;;;;;;39.77;18.03;;;8.80;99.90;;;;;;4946747;28;20042;-91
2021/12/24 12:08:51;;;;;;;42.23;18.07;;;8.80;99.90;;;;;;4942815;28;20049;-91
2021/12/24 12:11:24;;;;;;;44.83;18.03;;;8.90;99.90;;;;;;4942118;28;20035;-90
2021/12/24 12:13:51;;;;;;;40.47;18.33;;;8.80;99.90;;;;;;4957856;28;20046;-90
2021/12/24 12:16:46;;;;;;;41.20;17.97;;;8.80;99.90;;;;;;4942033;28;20030;-90
2021/12/24 12:19:22;;;;;;;45.83;18.53;;;8.80;99.90;;;;;;4943144;28;20085;-90
2021/12/24 12:22:18;;;;;;;45.23;19.63;;;8.80;99.90;;;;;;4942875;28;20027;-91
2021/12/24 12:27:38;;;;;;;42.53;19.30;;;8.80;99.90;;;;;;4957744;28;20086;-90
2021/12/24 12:30:25;;;;;;;44.50;19.50;;;8.80;99.90;;;;;;4942098;28;20045;-90
2021/12/24 12:33:03;;;;;;;47.43;19.90;;;8.80;99.90;;;;;;4943993;28;20035;-90
2021/12/24 12:35:53;;;;;;;45.17;19.67;;;8.90;99.90;;;;;;4959510;28;20042;-90
2021/12/24 12:38:27;;;;;;;51.63;21.17;;;8.80;99.90;;;;;;4956467;28;20138;-90
2021/12/24 12:40:54;;;;;;;48.77;20.53;;;8.80;99.90;;;;;;4941389;28;20034;-91
2021/12/24 12:43:22;;;;;;;42.73;21.20;;;8.80;99.90;;;;;;4941156;28;20019;-90
2021/12/24 12:45:49;;;;;;;47.77;20.87;;;8.80;99.90;;;;;;4941622;28;20113;-90
2021/12/24 12:48:23;;;;;;;46.77;21.77;;;8.90;99.90;;;;;;4941103;28;20027;-90
2021/12/24 12:51:00;;;;;;;45.50;20.27;;;8.90;99.90;;;;;;4941598;28;20035;-90
2021/12/24 12:53:35;;;;;;;52.10;22.27;;;8.80;99.90;;;;;;4941895;28;20477;-90
2021/12/24 12:56:22;;;;;;;51.70;22.57;;;8.90;99.90;;;;;;4941325;28;20038;-91
2021/12/24 12:59:06;;;;;;;47.13;22.93;;;8.80;99.90;;;;;;4940767;28;20121;-90
2021/12/24 13:01:47;;;;;;;47.27;22.63;;;8.80;99.90;;;;;;4940993;28;20133;-91
2021/12/24 13:04:14;;;;;;;45.67;22.60;;;8.90;99.90;;;;;;4941623;28;20038;-90
2021/12/24 13:06:43;;;;;;;53.13;24.20;;;8.90;99.90;;;;;;4941088;28;20034;-91
2021/12/24 13:09:11;;;;;;;50.77;23.20;;;8.80;99.90;;;;;;4956838;28;20544;-91
2021/12/24 13:11:40;;;;;;;49.77;23.60;;;9.00;99.90;;;;;;4941384;28;20470;-91
2021/12/24 13:14:06;;;;;;;47.08;22.75;;;9.00;99.90;;;;;;4942092;28;20126;-90
2021/12/24 13:16:45;;;;;;;52.47;22.20;;;9.00;99.90;;;;;;4959545;28;20070;-91
2021/12/24 13:24:17;;;;;;;46.97;22.03;;;9.00;99.90;;;;;;4956723;28;20039;-90
2021/12/24 13:26:45;;;;;;;53.37;22.87;;;9.10;99.90;;;;;;4956919;28;20061;-90
2021/12/24 13:29:22;;;;;;;44.17;21.60;;;9.00;99.90;;;;;;4941103;28;20033;-89
2021/12/24 13:31:56;;;;;;;41.53;20.77;;;9.10;99.90;;;;;;4941292;28;20126;-90
2021/12/24 13:34:23;;;;;;;45.60;21.70;;;9.10;99.90;;;;;;4941474;28;20078;-90
2021/12/24 13:36:50;;;;;;;40.73;21.13;;;9.10;99.90;;;;;;4940837;28;20103;-90
2021/12/24 13:39:22;;;;;;;45.50;21.73;;;9.10;99.90;;;;;;4957111;28;20066;-91
2021/12/24 13:41:58;;;;;;;41.67;19.50;;;9.00;99.90;;;;;;4941412;28;20509;-89
2021/12/24 13:44:27;;;;;;;44.00;20.60;;;9.00;99.90;;;;;;4957310;28;20034;-91
2021/12/24 13:47:26;;;;;;;43.58;19.98;;;9.10;99.90;;;;;;4942694;28;20035;-90
2021/12/24 13:55:29;;;;;;;40.07;19.43;;;9.00;99.90;;;;;;4960061;28;20035;-89
2021/12/24 13:57:56;;;;;;;47.90;21.52;;;9.10;99.90;;;;;;4976056;28;20101;-89
2021/12/24 14:00:23;;;;;;;48.23;23.03;;;9.10;99.90;;;;;;4941689;28;20042;-90
2021/12/24 14:03:00;;;;;;;50.83;24.80;;;9.10;99.90;;;;;;4941594;28;20456;-90
2021/12/24 14:05:26;;;;;;;42.90;20.87;;;9.10;99.90;;;;;;4942067;28;20027;-90
2021/12/24 14:08:13;;;;;;;45.23;21.60;;;9.10;99.90;;;;;;4941005;28;20077;-90
2021/12/24 14:10:42;;;;;;;46.73;20.47;;;9.10;99.90;;;;;;4940816;28;20031;-90
2021/12/24 14:13:19;;;;;;;37.37;21.60;;;9.20;99.90;;;;;;4956999;28;20448;-90
2021/12/24 14:16:01;;;;;;;33.20;18.50;;;9.20;99.90;;;;;;4957862;28;20035;-89
2021/12/24 14:24:14;;;;;;;48.50;19.90;;;9.20;99.90;;;;;;4961524;28;20068;-90
2021/12/24 14:27:01;;;;;;;39.65;18.85;;;9.30;99.90;;;;;;4978363;28;20054;-90
2021/12/24 14:29:40;;;;;;;36.77;19.53;;;9.30;99.90;;;;;;4960376;28;20490;-90
2021/12/24 14:32:07;;;;;;;40.60;19.80;;;9.20;99.90;;;;;;4962372;28;20026;-90
2021/12/24 14:34:46;;;;;;;36.50;18.83;;;9.30;99.90;;;;;;4961238;28;20045;-90
2021/12/24 14:37:25;;;;;;;37.77;19.53;;;9.30;99.90;;;;;;4961566;28;20038;-90
2021/12/24 14:39:54;;;;;;;;;;;9.20;99.90;;;;;;4947364;28;20099;-90
2021/12/24 14:42:23;;;;;;;36.05;18.13;;;9.20;99.90;;;;;;4947270;28;20291;-90
2021/12/24 14:44:52;;;;;;;35.50;18.48;;;9.20;99.90;;;;;;4963740;28;20375;-90
2021/12/24 14:47:22;;;;;;;35.90;18.38;;;9.20;99.90;;;;;;4946824;28;20034;-90